weather.gov     
National Weather Service

Terminal Aerodrome Forecast
NWS Homepage
This page is being discontinued on March 12, 2014.
The same data is available at this site. Please update your bookmarks.
Thank you, and we apologize for the inconvenience.
Please send an email to SR-SRH.Webmaster@noaa.gov with any concerns.


Current Version
Previous Version:    01  02  03  04  05  06  07  08  09  10  11  12  13  14  15  16  17  18  19  20  21  22  23  24  25  26  27  28  29  30  
   31  32  33  34  35  36  37  38  39  40  
[Printable]
234
FTUS44 KSHV 230300 AAA
TAFSHV
TAF AMD
KSHV 230319Z 2303/2324 12009KT 4SM RA BR BKN025 OVC070
      TEMPO 2303/2306 3SM -TSRA BR BKN015CB OVC025
     FM230600 13007KT 3SM TSRA BR OVC007CB
     FM231100 13008KT 4SM BR VCSH OVC007
     FM231300 16011KT 5SM BR OVC007
     FM231600 23010G18KT P6SM BKN015
     FM231800 22015G22KT P6SM SCT250=


U.S. Dept. of Commerce
NOAA National Weather Service
1325 East West Highway
Silver Spring, MD 20910
E-mail: w-nws.webmaster@noaa.gov
Page last modified: May 16, 2007
NATIONAL WEATHER SERVICE: for Safety, for Work, for Fun - FOR LIFE